createdAt,value
2022-08-12T00:04:17.560Z,51.18
2022-08-12T00:09:40.753Z,51.30
2022-08-12T00:15:03.683Z,50.67
2022-08-12T00:20:29.786Z,51.33
2022-08-12T00:26:23.101Z,51.77
2022-08-12T00:31:30.015Z,52.23
2022-08-12T00:36:52.742Z,51.37
2022-08-12T00:42:11.630Z,51.80
2022-08-12T00:47:24.736Z,51.73
2022-08-12T00:52:27.021Z,51.25
2022-08-12T00:57:36.354Z,50.90
2022-08-12T01:02:45.761Z,51.00
2022-08-12T01:08:09.913Z,51.77
2022-08-12T01:13:19.899Z,50.70
2022-08-12T01:18:29.688Z,51.00
2022-08-12T01:24:29.567Z,51.00
2022-08-12T01:29:11.439Z,50.97
2022-08-12T01:34:35.674Z,51.02
2022-08-12T01:39:35.660Z,49.73
2022-08-12T01:44:41.579Z,50.67
2022-08-12T01:50:10.342Z,50.73
2022-08-12T01:55:19.119Z,50.17
2022-08-12T02:00:35.537Z,50.83
2022-08-12T02:06:10.726Z,50.60
2022-08-12T02:11:29.750Z,50.53
2022-08-12T02:16:50.064Z,50.60
2022-08-12T02:22:19.158Z,50.20
2022-08-12T02:27:27.868Z,50.67
2022-08-12T02:32:37.080Z,50.80
2022-08-12T02:37:45.462Z,51.27
2022-08-12T02:43:03.110Z,50.13
2022-08-12T02:48:10.741Z,50.60
2022-08-12T02:53:19.252Z,50.43
2022-08-12T02:58:32.928Z,49.93
2022-08-12T03:03:35.089Z,50.03
2022-08-12T03:08:43.480Z,50.70
2022-08-12T03:14:03.037Z,50.13
2022-08-12T03:19:09.046Z,49.83
2022-08-12T03:24:17.519Z,50.10
2022-08-12T03:29:29.886Z,50.03
2022-08-12T03:34:37.715Z,50.23
2022-08-12T03:39:45.196Z,49.43
2022-08-12T03:45:21.371Z,50.17
2022-08-12T03:50:45.485Z,49.87
2022-08-12T03:56:08.590Z,50.13
2022-08-12T04:01:15.477Z,50.97
2022-08-12T04:06:34.930Z,50.83
2022-08-12T04:11:58.154Z,50.83
2022-08-12T04:17:05.861Z,52.48
2022-08-12T04:22:12.993Z,52.33
2022-08-12T04:27:19.780Z,52.77
2022-08-12T04:32:26.076Z,52.50
2022-08-12T04:37:59.908Z,52.35
2022-08-12T04:42:39.088Z,51.58
2022-08-12T04:47:44.712Z,51.23
2022-08-12T04:52:52.042Z,53.90
2022-08-12T05:03:02.608Z,53.38
2022-08-12T05:08:17.055Z,52.67
2022-08-12T05:13:25.781Z,52.50
2022-08-12T05:18:31.334Z,53.73
2022-08-12T05:23:41.094Z,54.03
2022-08-12T05:28:46.649Z,54.00
2022-08-12T05:33:51.560Z,54.20
2022-08-12T05:38:59.785Z,54.97
2022-08-12T05:44:08.051Z,54.53
2022-08-12T05:49:13.553Z,54.37
2022-08-12T05:54:21.982Z,54.03
2022-08-12T05:59:26.846Z,53.67
2022-08-12T06:04:32.434Z,54.47
2022-08-12T06:09:37.724Z,54.58
2022-08-12T06:14:44.216Z,54.20
2022-08-12T06:20:25.896Z,56.05
2022-08-12T06:24:56.702Z,54.90
2022-08-12T06:30:09.445Z,55.37
2022-08-12T06:35:26.572Z,55.37
2022-08-12T06:40:38.385Z,55.23
2022-08-12T06:45:48.305Z,56.00
2022-08-12T06:50:54.042Z,54.93
2022-08-12T06:56:00.628Z,55.35
2022-08-12T07:01:07.366Z,55.80
2022-08-12T07:06:14.035Z,58.35
2022-08-12T07:11:20.447Z,57.13
2022-08-12T07:16:27.050Z,55.90
2022-08-12T07:21:59.899Z,55.80
2022-08-12T07:26:44.257Z,55.63
2022-08-12T07:31:48.892Z,55.50
2022-08-12T07:36:55.013Z,58.08
2022-08-12T07:42:00.157Z,55.80
2022-08-12T07:47:06.987Z,56.25
2022-08-12T07:52:11.915Z,56.53
2022-08-12T07:57:16.932Z,56.80
2022-08-12T08:02:26.350Z,55.93
2022-08-12T08:07:31.312Z,56.03
2022-08-12T08:12:54.676Z,56.40
2022-08-12T08:18:05.517Z,56.00
2022-08-12T08:23:15.225Z,56.87
2022-08-12T08:28:21.346Z,56.30
2022-08-12T08:34:04.205Z,56.23
2022-08-12T08:38:35.228Z,56.73
2022-08-12T08:43:44.218Z,55.63
2022-08-12T08:48:48.608Z,56.10
2022-08-12T08:53:56.735Z,56.00
2022-08-12T08:59:02.703Z,55.10
2022-08-12T09:05:07.583Z,56.10
2022-08-12T09:09:21.554Z,55.97
2022-08-12T09:14:29.386Z,56.33
2022-08-12T09:19:33.926Z,56.10
2022-08-12T09:24:39.420Z,55.57
2022-08-12T09:30:11.804Z,56.40
2022-08-12T09:34:54.706Z,56.30
2022-08-12T09:41:02.045Z,56.63
2022-08-12T09:46:06.303Z,56.37
2022-08-12T09:50:32.300Z,56.53
2022-08-12T09:56:07.040Z,56.83
2022-08-12T10:00:52.045Z,57.17
2022-08-12T10:06:26.238Z,56.80
2022-08-12T10:11:24.867Z,57.40
2022-08-12T10:16:38.756Z,57.67
2022-08-12T10:21:41.639Z,56.90
2022-08-12T10:27:06.225Z,57.53
2022-08-12T10:32:20.933Z,56.53
2022-08-12T10:38:34.640Z,56.90
2022-08-12T10:42:47.891Z,57.67
2022-08-12T10:48:19.134Z,57.17
2022-08-12T10:53:01.209Z,56.70
2022-08-12T11:04:25.741Z,56.83
2022-08-12T11:08:35.907Z,58.10
2022-08-12T11:13:46.617Z,58.40
2022-08-12T11:18:33.581Z,57.33
2022-08-12T11:23:40.403Z,57.20
2022-08-12T11:28:45.962Z,57.13
2022-08-12T11:34:06.623Z,57.40
2022-08-12T11:39:04.544Z,57.53
2022-08-12T11:44:35.301Z,57.30
2022-08-12T11:49:30.524Z,57.40
2022-08-12T11:54:23.983Z,56.98
2022-08-12T12:04:37.532Z,57.10
2022-08-12T12:09:53.083Z,56.63
2022-08-12T12:14:54.307Z,56.13
2022-08-12T12:19:57.511Z,56.40
2022-08-12T12:25:08.987Z,56.58
2022-08-12T12:30:17.892Z,57.33
2022-08-12T12:36:16.578Z,56.58
2022-08-12T12:40:30.003Z,56.70
2022-08-12T12:45:39.471Z,57.07
2022-08-12T12:50:51.916Z,56.57
2022-08-12T12:55:57.106Z,57.60
2022-08-12T13:01:25.379Z,57.70
2022-08-12T13:06:13.848Z,57.47
2022-08-12T13:11:20.844Z,58.20
2022-08-12T13:16:29.232Z,58.23
2022-08-12T13:21:36.712Z,57.20
2022-08-12T13:26:41.493Z,56.90
2022-08-12T13:32:18.904Z,56.33
2022-08-12T13:36:57.506Z,56.93
2022-08-12T13:42:02.693Z,56.57
2022-08-12T13:47:12.424Z,57.47
2022-08-12T13:52:15.323Z,56.60
2022-08-12T13:57:20.676Z,57.07
2022-08-12T14:02:26.605Z,56.93
2022-08-12T14:07:45.897Z,56.50
2022-08-12T14:12:41.453Z,56.40
2022-08-12T14:17:52.182Z,56.47
2022-08-12T14:22:57.578Z,56.73
2022-08-12T14:28:11.729Z,56.63
2022-08-12T14:33:17.375Z,56.15
2022-08-12T14:38:28.001Z,56.83
2022-08-12T14:43:59.195Z,56.97
2022-08-12T14:48:46.897Z,57.50
2022-08-12T14:56:08.866Z,57.20
2022-08-12T14:59:23.494Z,56.70
2022-08-12T15:04:26.287Z,56.67
2022-08-12T15:09:31.485Z,56.50
2022-08-12T15:14:37.888Z,57.43
2022-08-12T15:20:11.590Z,57.80
2022-08-12T15:24:50.318Z,57.87
2022-08-12T15:29:56.485Z,56.93
2022-08-12T15:35:02.023Z,56.87
2022-08-12T15:40:09.103Z,56.88
2022-08-12T15:45:21.234Z,56.37
2022-08-12T15:50:26.566Z,56.63
2022-08-12T15:55:31.370Z,56.87
2022-08-12T16:00:41.014Z,56.67
2022-08-12T16:06:11.120Z,56.40
2022-08-12T16:10:54.620Z,56.75
2022-08-12T16:16:02.925Z,56.73
2022-08-12T16:21:51.531Z,56.40
2022-08-12T16:26:27.397Z,56.30
2022-08-12T16:31:29.635Z,55.97
2022-08-12T16:36:35.414Z,56.30
2022-08-12T16:46:58.009Z,56.95
2022-08-12T16:51:57.005Z,56.70
2022-08-12T16:57:05.582Z,56.23
2022-08-12T17:02:12.560Z,57.07
2022-08-12T17:07:21.348Z,56.33
2022-08-12T17:12:29.417Z,56.33
2022-08-12T17:17:39.327Z,57.37
2022-08-12T17:22:45.255Z,56.63
2022-08-12T17:27:57.159Z,56.97
2022-08-12T17:33:00.727Z,56.70
2022-08-12T17:38:14.164Z,56.47
2022-08-12T17:43:56.615Z,57.17
2022-08-12T17:48:34.296Z,56.80
2022-08-12T17:54:06.367Z,56.60
2022-08-12T17:58:58.469Z,56.55
2022-08-12T18:03:58.209Z,56.85
2022-08-12T18:09:08.817Z,57.30
2022-08-12T18:14:11.865Z,57.37
2022-08-12T18:19:20.027Z,56.97
2022-08-12T18:24:29.705Z,57.20
2022-08-12T18:29:42.317Z,70.43
2022-08-12T18:34:45.223Z,66.10
2022-08-12T18:40:10.551Z,59.80
2022-08-12T18:45:20.571Z,58.77
2022-08-12T18:50:27.542Z,57.75
2022-08-12T18:55:37.443Z,57.50
2022-08-12T19:00:44.711Z,57.47
2022-08-12T19:05:57.804Z,56.37
2022-08-12T19:11:23.871Z,57.07
2022-08-12T19:16:39.441Z,57.00
2022-08-12T19:21:57.038Z,58.17
2022-08-12T19:26:57.402Z,57.53
2022-08-12T19:32:06.170Z,57.37
2022-08-12T19:37:15.916Z,56.73
2022-08-12T19:42:22.926Z,57.25
2022-08-12T19:47:39.001Z,58.60
2022-08-12T19:52:41.021Z,58.95
2022-08-12T19:58:03.258Z,57.03
2022-08-12T20:02:57.524Z,56.20
2022-08-12T20:08:07.481Z,55.83
2022-08-12T20:13:18.608Z,57.23
2022-08-12T20:18:44.433Z,56.23
2022-08-12T20:23:50.405Z,58.85
2022-08-12T20:28:37.235Z,58.77
2022-08-12T20:33:50.762Z,59.20
2022-08-12T20:38:51.697Z,57.80
2022-08-12T20:43:59.592Z,57.60
2022-08-12T20:49:14.466Z,56.87
2022-08-12T20:54:14.829Z,56.23
2022-08-12T20:59:23.395Z,56.80
2022-08-12T21:04:48.138Z,58.20
2022-08-12T21:09:54.771Z,57.57
2022-08-12T21:15:23.078Z,57.30
2022-08-12T21:20:15.731Z,55.60
2022-08-12T21:25:24.254Z,57.03
2022-08-12T21:30:37.476Z,55.53
2022-08-12T21:35:40.143Z,58.10
2022-08-12T21:40:52.494Z,56.43
2022-08-12T21:46:01.345Z,56.20
2022-08-12T21:51:22.812Z,55.50
2022-08-12T21:56:33.962Z,56.27
2022-08-12T22:01:24.802Z,55.55
2022-08-12T22:06:42.874Z,55.95
2022-08-12T22:11:42.264Z,57.67
2022-08-12T22:16:46.834Z,56.80
2022-08-12T22:21:54.438Z,56.57
2022-08-12T22:27:18.109Z,55.17
2022-08-12T22:32:11.314Z,55.77
2022-08-12T22:37:19.909Z,57.00
2022-08-12T22:42:40.370Z,59.50
2022-08-12T22:47:53.935Z,58.10
2022-08-12T22:52:53.731Z,57.33
2022-08-12T22:57:58.606Z,56.40
2022-08-12T23:03:03.852Z,55.77
2022-08-12T23:08:13.900Z,55.83
2022-08-12T23:13:42.961Z,57.33
2022-08-12T23:18:44.547Z,57.70
2022-08-12T23:24:09.484Z,58.63
2022-08-12T23:34:24.044Z,56.50
2022-08-12T23:40:14.648Z,57.10
2022-08-12T23:44:38.453Z,57.17
2022-08-12T23:49:56.265Z,55.03
2022-08-12T23:54:58.258Z,56.00
